Time;durP1;ratioP1;P1;durP2;ratioP2;P2;SDS_P1;SDS_P2;PMS_P1;PMS_P2;Temp;Humidity;BMP_temperature;BMP_pressure;BME280_temperature;BME280_humidity;BME280_pressure;Samples;Min_cycle;Max_cycle;Signal;HPM_P1;HPM_P2
2022/02/16 00:00:11;;;;;;;4.85;4.65;;;;;;;7.25;95.62;100112.50;6028512;23;20259;-71
2022/02/16 00:02:38;;;;;;;3.40;3.30;;;;;;;7.25;95.44;100099.44;6038573;23;20018;-71
2022/02/16 00:05:08;;;;;;;4.35;4.15;;;;;;;6.85;96.08;100026.50;6012696;23;20554;-71
2022/02/16 00:07:41;;;;;;;3.80;3.70;;;;;;;7.27;95.49;100092.38;6018438;23;20097;-71
2022/02/16 00:10:10;;;;;;;4.10;3.90;;;;;;;7.28;95.40;100086.25;6022363;23;20018;-71
2022/02/16 00:12:37;;;;;;;3.40;3.30;;;;;;;7.26;96.60;100080.25;6001203;23;20090;-70
2022/02/16 00:15:04;;;;;;;4.50;4.30;;;;;;;6.48;96.03;99939.63;5995778;23;20549;-70
2022/02/16 00:17:31;;;;;;;3.50;3.40;;;;;;;7.28;96.15;100071.44;6025350;23;20030;-70
2022/02/16 00:19:57;;;;;;;3.60;3.50;;;;;;;7.29;96.52;100067.88;6031978;23;20082;-70
2022/02/16 00:22:24;;;;;;;3.60;3.50;;;;;;;5.71;96.29;99805.16;6028275;23;20080;-70
2022/02/16 00:24:51;;;;;;;3.70;3.60;;;;;;;6.81;96.13;99990.22;5976246;23;20015;-70
2022/02/16 00:27:17;;;;;;;3.85;3.70;;;;;;;7.24;96.04;100050.78;6038175;23;20033;-70
2022/02/16 00:29:43;;;;;;;3.60;3.50;;;;;;;6.83;96.36;99991.00;6040960;23;20019;-70
2022/02/16 00:32:10;;;;;;;5.05;4.85;;;;;;;7.31;96.87;100052.16;6002976;23;20027;-70
2022/02/16 00:34:37;;;;;;;3.35;3.25;;;;;;;6.46;96.28;99917.16;6032698;23;20053;-70
2022/02/16 00:37:03;;;;;;;4.68;4.47;;;;;;;7.33;96.48;100040.72;6029845;23;20090;-70
2022/02/16 00:39:30;;;;;;;3.40;3.30;;;;;;;7.12;96.47;100000.03;6002979;23;20027;-70
2022/02/16 00:41:56;;;;;;;3.67;3.58;;;;;;;6.97;96.98;99980.75;5991147;23;20079;-70
2022/02/16 00:44:23;;;;;;;3.55;3.45;;;;;;;7.37;97.15;100037.03;6037427;23;20023;-70
2022/02/16 00:46:50;;;;;;;3.33;3.22;;;;;;;7.07;96.82;99981.13;6002377;23;20207;-71
2022/02/16 00:49:17;;;;;;;3.80;3.70;;;;;;;6.55;96.95;99901.06;6033512;23;20358;-71
2022/02/16 00:51:44;;;;;;;3.45;3.35;;;;;;;7.32;97.41;100026.00;6032623;23;20037;-70
2022/02/16 00:54:11;;;;;;;4.55;4.35;;;;;;;7.33;97.71;100029.44;6003716;23;20010;-70
2022/02/16 00:56:37;;;;;;;3.42;3.33;;;;;;;7.33;97.33;100025.06;6003134;23;20091;-71
2022/02/16 00:59:04;;;;;;;4.68;4.47;;;;;;;6.66;98.16;99909.22;6024254;23;20416;-69
2022/02/16 01:01:30;;;;;;;3.30;3.20;;;;;;;7.32;97.58;100020.78;6026543;23;20030;-70
2022/02/16 01:03:57;;;;;;;3.60;3.50;;;;;;;7.38;98.59;100006.56;6009401;23;20015;-69
2022/02/16 01:06:23;;;;;;;3.30;3.20;;;;;;;7.38;98.18;100004.81;6013078;23;20464;-69
2022/02/16 01:08:50;;;;;;;3.53;3.42;;;;;;;7.40;98.20;100002.13;6036937;23;21100;-70
2022/02/16 01:11:17;;;;;;;4.10;3.90;;;;;;;6.07;97.71;99788.69;6005206;23;20025;-70
2022/02/16 01:13:43;;;;;;;3.50;3.40;;;;;;;6.37;98.34;99828.09;6030940;23;20184;-70
2022/02/16 01:16:10;;;;;;;4.55;4.35;;;;;;;6.98;97.71;99925.91;6030340;23;20101;-69
2022/02/16 01:18:36;;;;;;;3.55;3.45;;;;;;;5.94;98.04;99744.16;6000230;23;20015;-69
2022/02/16 01:21:02;;;;;;;4.40;4.20;;;;;;;7.45;97.70;99983.59;6039431;23;20022;-70
2022/02/16 01:23:29;;;;;;;3.40;3.30;;;;;;;7.44;98.13;99992.34;5992647;23;20030;-71
2022/02/16 01:25:57;;;;;;;3.75;3.60;;;;;;;7.18;97.84;99944.94;6032314;23;20025;-70
2022/02/16 01:28:24;;;;;;;3.30;3.20;;;;;;;7.12;98.17;99945.25;6044742;23;20097;-71
2022/02/16 01:30:50;;;;;;;3.40;3.30;;;;;;;7.30;98.09;99957.38;6031071;23;20130;-70
2022/02/16 01:33:17;;;;;;;4.13;3.92;;;;;;;7.46;98.13;99986.16;6013002;23;20018;-71
2022/02/16 01:35:43;;;;;;;3.50;3.40;;;;;;;7.36;97.84;99956.22;6012378;23;20031;-70
2022/02/16 01:38:09;;;;;;;4.72;4.53;;;;;;;7.48;98.61;99973.84;5972228;23;20094;-71
2022/02/16 01:40:36;;;;;;;3.30;3.20;;;;;;;6.75;97.96;99856.59;6006879;23;20023;-70
2022/02/16 01:43:02;;;;;;;4.57;4.38;;;;;;;7.48;97.42;99963.41;6025650;23;20018;-70
2022/02/16 01:45:30;;;;;;;3.72;3.63;;;;;;;7.46;99.13;99960.03;6035395;23;20338;-71
2022/02/16 01:47:57;;;;;;;3.70;3.58;;;;;;;6.16;98.19;99756.16;5998808;23;20048;-70
2022/02/16 01:50:23;;;;;;;3.40;3.30;;;;;;;7.17;98.09;99898.88;6029518;23;20029;-71
2022/02/16 01:52:52;;;;;;;3.50;3.40;;;;;;;7.49;98.85;99943.38;6024697;23;20026;-70
2022/02/16 01:55:19;;;;;;;3.45;3.35;;;;;;;6.79;98.03;99844.25;6033465;23;20025;-70
2022/02/16 01:57:47;;;;;;;3.40;3.30;;;;;;;7.39;98.95;99927.31;6034447;23;20590;-70
2022/02/16 02:00:13;;;;;;;3.53;3.42;;;;;;;6.84;98.39;99824.03;6001859;23;20039;-70
2022/02/16 02:02:40;;;;;;;3.35;3.25;;;;;;;7.50;98.93;99930.25;6033138;23;20022;-70
2022/02/16 02:05:06;;;;;;;4.82;4.63;;;;;;;6.81;99.16;99818.94;6003713;23;20038;-70
2022/02/16 02:07:37;;;;;;;3.40;3.30;;;;;;;7.52;99.03;99917.94;6022343;23;20238;-70
2022/02/16 02:10:04;;;;;;;4.65;4.45;;;;;;;6.43;98.36;99740.06;5993765;23;20087;-70
2022/02/16 02:12:32;;;;;;;3.50;3.40;;;;;;;7.17;98.63;99871.00;6026324;23;20033;-70
2022/02/16 02:14:58;;;;;;;3.63;3.53;;;;;;;7.58;99.04;99922.00;6003375;23;20094;-73
2022/02/16 02:17:25;;;;;;;3.50;3.40;;;;;;;7.55;99.42;99920.38;6025484;23;20039;-71
2022/02/16 02:19:51;;;;;;;3.50;3.40;;;;;;;7.55;98.91;99917.78;6006361;23;20021;-71
2022/02/16 02:22:17;;;;;;;3.70;3.60;;;;;;;7.15;99.51;99862.41;6021865;23;20556;-70
2022/02/16 02:24:44;;;;;;;3.50;3.40;;;;;;;7.54;99.97;99910.03;6008388;23;20067;-71
2022/02/16 02:27:10;;;;;;;4.57;4.38;;;;;;;7.52;100.00;99911.88;6014335;23;20102;-70
2022/02/16 02:29:39;;;;;;;3.30;3.20;;;;;;;7.51;100.00;99903.19;6006393;23;20027;-71
2022/02/16 02:32:06;;;;;;;4.78;4.57;;;;;;;6.87;100.00;99802.97;6026951;23;20085;-71
2022/02/16 02:34:32;;;;;;;3.42;3.33;;;;;;;7.52;99.54;99894.44;6003993;23;20127;-71
2022/02/16 02:36:58;;;;;;;3.55;3.45;;;;;;;7.52;100.00;99885.78;6042622;23;20090;-70
2022/02/16 02:39:25;;;;;;;3.38;3.28;;;;;;;6.58;100.00;99731.50;6033166;23;20022;-70
2022/02/16 02:41:51;;;;;;;3.30;3.20;;;;;;;7.22;100.00;99825.56;6005965;23;20039;-70
2022/02/16 02:44:18;;;;;;;3.53;3.42;;;;;;;6.97;100.00;99764.22;6004099;23;20017;-71
2022/02/16 02:46:44;;;;;;;3.50;3.40;;;;;;;7.29;99.96;99822.56;5983467;23;20019;-71
2022/02/16 02:49:11;;;;;;;4.43;4.22;;;;;;;7.61;99.89;99867.00;6028597;23;20015;-70
2022/02/16 02:51:37;;;;;;;3.42;3.33;;;;;;;7.57;100.00;99858.47;5995420;23;20023;-70
2022/02/16 02:54:03;;;;;;;4.55;4.35;;;;;;;7.14;100.00;99785.06;6033376;23;20034;-71
2022/02/16 02:56:30;;;;;;;3.40;3.30;;;;;;;6.72;99.73;99717.75;6023148;23;20035;-70
2022/02/16 02:58:56;;;;;;;3.72;3.60;;;;;;;7.57;100.00;99841.97;6002675;23;20074;-70
2022/02/16 03:01:22;;;;;;;3.40;3.30;;;;;;;7.01;100.00;99751.88;6032567;23;20014;-71
2022/02/16 03:03:49;;;;;;;3.45;3.35;;;;;;;6.90;100.00;99716.78;6001125;23;20012;-70
2022/02/16 03:06:15;;;;;;;4.25;4.05;;;;;;;7.60;100.00;99839.22;6009715;23;20034;-70
2022/02/16 03:08:42;;;;;;;3.50;3.40;;;;;;;7.10;100.00;99767.06;5997753;23;20019;-70
2022/02/16 03:11:16;;;;;;;3.40;3.30;;;;;;;7.11;100.00;99742.63;6028886;23;20026;-70
2022/02/16 03:13:43;;;;;;;3.40;3.30;;;;;;;7.65;99.35;99824.13;5972209;23;20509;-70
2022/02/16 03:16:09;;;;;;;5.05;4.85;;;;;;;7.21;99.88;99756.88;6027638;23;20026;-70
2022/02/16 03:18:35;;;;;;;3.55;3.45;;;;;;;7.49;99.59;99790.16;6000887;23;20100;-70
2022/02/16 03:21:02;;;;;;;4.32;4.13;;;;;;;7.32;98.79;99745.88;6028774;23;20030;-70
2022/02/16 03:23:28;;;;;;;3.30;3.20;;;;;;;7.71;98.71;99815.13;6016546;23;20468;-71
2022/02/16 03:25:54;;;;;;;3.60;3.50;;;;;;;7.05;99.07;99715.09;5994791;23;20410;-70
2022/02/16 03:28:21;;;;;;;3.45;3.35;;;;;;;7.69;98.97;99819.59;6017752;23;21792;-71
2022/02/16 03:30:48;;;;;;;3.45;3.35;;;;;;;7.27;99.14;99733.06;6010160;23;20342;-70
2022/02/16 03:33:29;;;;;;;3.50;3.40;;;;;;;6.92;98.45;99672.38;6032792;23;20376;-71
2022/02/16 03:35:56;;;;;;;3.65;3.55;;;;;;;7.64;98.76;99787.66;6006805;23;20496;-70
2022/02/16 03:38:24;;;;;;;3.50;3.40;;;;;;;6.97;98.29;99672.94;6032445;23;20393;-70
2022/02/16 03:40:51;;;;;;;3.50;3.40;;;;;;;7.83;98.50;99790.94;6044844;23;20051;-70
2022/02/16 03:43:17;;;;;;;3.70;3.60;;;;;;;7.44;97.45;99726.94;6014159;23;20112;-70
2022/02/16 03:45:43;;;;;;;3.60;3.50;;;;;;;7.85;98.15;99796.09;6045955;23;20148;-70
2022/02/16 03:48:10;;;;;;;4.53;4.32;;;;;;;7.34;97.25;99730.97;6022035;23;20040;-71
2022/02/16 03:50:37;;;;;;;3.55;3.45;;;;;;;7.74;97.30;99789.69;6029569;23;20025;-70
2022/02/16 03:53:03;;;;;;;4.55;4.35;;;;;;;7.45;97.00;99723.38;6024777;23;20027;-70
2022/02/16 03:55:29;;;;;;;3.60;3.50;;;;;;;7.89;97.30;99801.03;5999389;23;20082;-70
2022/02/16 03:57:56;;;;;;;3.63;3.50;;;;;;;7.93;96.77;99799.94;6031316;23;20086;-70
2022/02/16 04:00:23;;;;;;;3.50;3.40;;;;;;;7.98;96.55;99803.16;6032991;23;20041;-70
2022/02/16 04:02:49;;;;;;;3.47;3.38;;;;;;;7.32;95.57;99685.84;6012001;23;20101;-70
2022/02/16 04:05:17;;;;;;;4.07;3.88;;;;;;;8.06;95.94;99812.31;6019384;23;20031;-70
2022/02/16 04:07:43;;;;;;;3.50;3.40;;;;;;;7.81;94.93;99737.09;5985149;23;20035;-70
2022/02/16 04:10:10;;;;;;;4.80;4.60;;;;;;;8.16;94.31;99787.38;6002562;23;20098;-70
2022/02/16 04:12:36;;;;;;;3.50;3.40;;;;;;;8.09;94.42;99768.56;6037521;23;20031;-70
2022/02/16 04:15:03;;;;;;;4.60;4.40;;;;;;;7.92;94.41;99739.97;6003356;23;20042;-70
2022/02/16 04:17:29;;;;;;;3.60;3.50;;;;;;;7.95;94.08;99740.63;6000896;23;20031;-71
2022/02/16 04:19:56;;;;;;;3.58;3.47;;;;;;;7.89;93.61;99711.38;5996021;23;20404;-71
2022/02/16 04:22:22;;;;;;;3.50;3.40;;;;;;;8.20;94.44;99757.53;6030894;23;20476;-71
2022/02/16 04:24:49;;;;;;;3.50;3.40;;;;;;;8.19;94.14;99754.03;6002503;23;20022;-70
2022/02/16 04:27:15;;;;;;;3.78;3.67;;;;;;;8.18;94.79;99754.16;6044032;23;20396;-69
2022/02/16 04:29:42;;;;;;;3.55;3.45;;;;;;;8.16;94.21;99749.00;6010493;23;20057;-70
2022/02/16 04:32:09;;;;;;;3.53;3.42;;;;;;;7.65;94.93;99675.28;6037675;23;20453;-70
2022/02/16 04:34:35;;;;;;;3.58;3.47;;;;;;;7.65;95.40;99653.56;6022316;23;20078;-70
2022/02/16 04:37:02;;;;;;;3.70;3.60;;;;;;;8.14;96.04;99743.03;6008724;23;20452;-70
2022/02/16 04:39:29;;;;;;;3.50;3.40;;;;;;;8.09;95.45;99728.53;6032113;23;20089;-70
2022/02/16 04:41:55;;;;;;;3.50;3.40;;;;;;;8.07;95.87;99746.06;6037953;23;20017;-70
2022/02/16 04:44:22;;;;;;;3.50;3.40;;;;;;;8.07;96.35;99741.69;6013235;23;20036;-70
2022/02/16 04:46:48;;;;;;;3.47;3.38;;;;;;;8.06;96.90;99728.69;6032985;23;20429;-70
2022/02/16 04:49:15;;;;;;;3.60;3.50;;;;;;;7.60;96.69;99664.28;5991231;23;20023;-70
2022/02/16 04:51:41;;;;;;;3.70;3.60;;;;;;;7.95;96.59;99724.94;5991683;23;20029;-70
2022/02/16 04:54:07;;;;;;;4.72;4.53;;;;;;;7.69;97.82;99676.78;6021004;23;20521;-71
2022/02/16 04:56:34;;;;;;;3.50;3.40;;;;;;;7.90;96.96;99718.31;6008167;23;20037;-70
2022/02/16 04:59:00;;;;;;;4.45;4.25;;;;;;;6.88;97.85;99553.47;5995942;23;20094;-71
2022/02/16 05:01:27;;;;;;;3.47;3.38;;;;;;;7.58;97.81;99672.19;6029666;23;20044;-70
2022/02/16 05:03:54;;;;;;;3.50;3.40;;;;;;;7.82;98.08;99710.03;5998617;23;20322;-70
2022/02/16 05:06:20;;;;;;;3.58;3.47;;;;;;;7.04;98.91;99574.34;6028350;23;20023;-71
2022/02/16 05:08:49;;;;;;;3.55;3.45;;;;;;;7.06;99.33;99567.28;5984261;23;20472;-70
2022/02/16 05:11:16;;;;;;;3.80;3.70;;;;;;;7.78;99.17;99678.06;6032914;23;20032;-71
2022/02/16 05:13:42;;;;;;;3.50;3.40;;;;;;;7.75;99.56;99671.22;6023543;23;20015;-70
2022/02/16 05:16:09;;;;;;;4.70;4.50;;;;;;;7.12;99.58;99559.94;6034186;23;20396;-69
2022/02/16 05:18:35;;;;;;;3.50;3.40;;;;;;;7.72;99.64;99660.13;6004098;23;20011;-69
2022/02/16 05:21:02;;;;;;;4.35;4.15;;;;;;;7.64;100.00;99644.03;6023961;23;20105;-69
2022/02/16 05:23:28;;;;;;;3.55;3.45;;;;;;;7.50;100.00;99631.78;6032609;23;20077;-69
2022/02/16 05:25:57;;;;;;;3.70;3.60;;;;;;;7.65;100.00;99646.56;6032709;23;20025;-69
2022/02/16 05:28:23;;;;;;;3.40;3.30;;;;;;;6.95;100.00;99537.38;6034675;23;20189;-70
2022/02/16 05:30:50;;;;;;;3.38;3.28;;;;;;;7.47;100.00;99606.66;6013036;23;20079;-69
2022/02/16 05:33:16;;;;;;;3.70;3.60;;;;;;;7.60;100.00;99630.31;6028981;23;20061;-70
2022/02/16 05:35:45;;;;;;;3.47;3.38;;;;;;;6.25;100.00;99403.16;6007789;23;20058;-69
2022/02/16 05:38:11;;;;;;;4.40;4.20;;;;;;;7.61;100.00;99634.59;6005035;23;20071;-70
2022/02/16 05:40:38;;;;;;;3.42;3.33;;;;;;;7.36;100.00;99567.31;6006444;23;20037;-70
2022/02/16 05:43:05;;;;;;;4.40;4.20;;;;;;;6.44;100.00;99421.22;6000588;23;20116;-70
2022/02/16 05:45:31;;;;;;;3.55;3.45;;;;;;;6.77;100.00;99475.81;6015549;23;20014;-70
2022/02/16 05:47:57;;;;;;;3.58;3.47;;;;;;;7.64;100.00;99582.22;6023386;23;20351;-70
2022/02/16 05:50:24;;;;;;;3.40;3.30;;;;;;;7.21;100.00;99524.63;6030262;23;20023;-70
2022/02/16 05:52:50;;;;;;;3.42;3.33;;;;;;;7.69;100.00;99590.63;6018396;23;20019;-69
2022/02/16 05:55:17;;;;;;;3.92;3.78;;;;;;;7.54;100.00;99566.25;6025786;23;20021;-69
2022/02/16 05:57:43;;;;;;;3.50;3.40;;;;;;;7.41;100.00;99528.72;6028580;23;20025;-69
2022/02/16 06:00:10;;;;;;;4.88;4.68;;;;;;;7.31;100.00;99509.31;6021945;23;20017;-70
2022/02/16 06:02:37;;;;;;;3.50;3.40;;;;;;;7.39;100.00;99515.75;6034643;23;20488;-71
2022/02/16 06:05:04;;;;;;;4.65;4.45;;;;;;;6.99;100.00;99436.34;5975323;23;20043;-70
2022/02/16 06:07:30;;;;;;;3.45;3.35;;;;;;;6.68;100.00;99396.38;6038553;23;20097;-68
2022/02/16 06:09:57;;;;;;;3.63;3.53;;;;;;;6.36;100.00;99346.06;6019575;23;20529;-69
2022/02/16 06:12:23;;;;;;;3.50;3.40;;;;;;;7.29;100.00;99492.88;6000191;23;20086;-69
2022/02/16 06:14:50;;;;;;;3.40;3.30;;;;;;;7.64;100.00;99524.78;6006506;23;20022;-70
2022/02/16 06:17:16;;;;;;;3.38;3.28;;;;;;;7.17;99.62;99445.69;6022958;23;20098;-69
2022/02/16 06:19:43;;;;;;;3.50;3.40;;;;;;;7.30;99.05;99450.22;5996883;23;20011;-68
2022/02/16 06:22:09;;;;;;;4.78;4.57;;;;;;;7.82;99.16;99532.44;6026182;23;20023;-69
2022/02/16 06:24:36;;;;;;;3.55;3.45;;;;;;;7.75;99.16;99516.28;5999171;23;20464;-69
2022/02/16 06:27:03;;;;;;;4.63;4.43;;;;;;;7.87;99.55;99517.34;6035682;23;20167;-69
2022/02/16 06:29:29;;;;;;;3.50;3.40;;;;;;;7.73;98.58;99485.03;6002156;23;20034;-69
2022/02/16 06:31:56;;;;;;;3.45;3.35;;;;;;;7.56;98.29;99459.13;5986851;23;20036;-71
2022/02/16 06:34:22;;;;;;;3.30;3.20;;;;;;;7.94;98.34;99506.44;6016103;23;20263;-69
2022/02/16 06:36:49;;;;;;;3.30;3.20;;;;;;;7.78;98.09;99479.56;5972252;23;20035;-68
2022/02/16 06:39:15;;;;;;;4.32;4.13;;;;;;;7.60;97.82;99434.50;6028147;23;20028;-69
2022/02/16 06:41:41;;;;;;;3.55;3.45;;;;;;;6.99;98.02;99338.03;6002495;23;20034;-69
2022/02/16 06:44:10;;;;;;;4.78;4.57;;;;;;;7.09;97.24;99340.94;6012127;23;20034;-68
2022/02/16 06:46:41;;;;;;;3.60;3.50;;;;;;;8.05;97.64;99491.88;5997496;23;20011;-69
2022/02/16 06:49:13;;;;;;;4.85;4.65;;;;;;;7.81;97.61;99455.84;5989329;23;20187;-69
2022/02/16 06:51:42;;;;;;;3.72;3.63;;;;;;;7.53;97.32;99392.25;5993526;23;20110;-70
2022/02/16 06:54:08;;;;;;;4.97;4.78;;;;;;;8.14;97.41;99480.88;6026616;23;20242;-71
2022/02/16 06:56:35;;;;;;;3.63;3.53;;;;;;;8.07;97.46;99464.72;6021595;23;20036;-70
2022/02/16 06:59:01;;;;;;;4.97;4.78;;;;;;;7.66;97.85;99376.69;6025191;23;20030;-72
2022/02/16 07:01:28;;;;;;;3.70;3.60;;;;;;;8.32;97.27;99466.66;5994654;23;20543;-69
2022/02/16 07:03:54;;;;;;;3.70;3.60;;;;;;;8.32;97.61;99465.81;6000597;23;20025;-72
2022/02/16 07:06:20;;;;;;;3.88;3.78;;;;;;;8.18;96.69;99444.00;6003727;23;20019;-70
2022/02/16 07:08:47;;;;;;;3.60;3.50;;;;;;;8.19;97.52;99435.19;6026299;23;20050;-70
2022/02/16 07:11:13;;;;;;;4.75;4.55;;;;;;;7.90;98.04;99384.78;5991019;23;20125;-70
2022/02/16 07:13:40;;;;;;;3.50;3.40;;;;;;;6.79;97.99;99203.66;6022371;23;20015;-72
2022/02/16 07:16:06;;;;;;;4.97;4.78;;;;;;;8.00;98.38;99413.78;6031338;23;20022;-71
2022/02/16 07:18:35;;;;;;;3.70;3.60;;;;;;;8.22;98.29;99436.81;5995055;23;20388;-71
2022/02/16 07:21:01;;;;;;;5.07;4.88;;;;;;;7.94;98.75;99408.94;6010037;23;20306;-72
2022/02/16 07:23:29;;;;;;;3.55;3.45;;;;;;;8.11;98.93;99419.16;6008912;23;20479;-72
2022/02/16 07:25:55;;;;;;;3.70;3.60;;;;;;;7.56;99.28;99321.59;6026610;23;20078;-72
2022/02/16 07:28:22;;;;;;;3.75;3.65;;;;;;;7.99;99.32;99394.63;6039467;23;20091;-72
2022/02/16 07:30:49;;;;;;;3.70;3.60;;;;;;;8.34;100.00;99440.44;5985117;23;20027;-71
2022/02/16 07:33:16;;;;;;;4.22;4.03;;;;;;;8.38;98.83;99436.69;6018285;23;21174;-70
2022/02/16 07:35:43;;;;;;;3.70;3.60;;;;;;;8.09;98.81;99381.84;6005609;23;20183;-70
2022/02/16 07:38:10;;;;;;;3.67;3.58;;;;;;;8.32;98.52;99400.47;6021019;23;20082;-71
2022/02/16 07:40:36;;;;;;;3.80;3.70;;;;;;;7.83;98.25;99323.41;6027997;23;20516;-71
2022/02/16 07:43:03;;;;;;;3.90;3.80;;;;;;;8.31;98.08;99410.06;6026276;23;20018;-72
2022/02/16 07:45:29;;;;;;;3.78;3.67;;;;;;;8.55;98.66;99425.16;6039629;23;20022;-71
2022/02/16 07:47:56;;;;;;;4.00;3.80;;;;;;;7.98;98.00;99330.28;6024565;23;20477;-72
2022/02/16 07:50:23;;;;;;;3.80;3.70;;;;;;;8.61;98.75;99410.88;5999606;23;20469;-72
2022/02/16 07:52:49;;;;;;;3.67;3.58;;;;;;;8.43;98.57;99377.09;5994322;23;20086;-72
2022/02/16 07:55:16;;;;;;;4.43;4.22;;;;;;;8.37;99.00;99375.69;5992378;23;20046;-70
2022/02/16 07:57:43;;;;;;;3.78;3.67;;;;;;;8.08;100.00;99308.78;6024729;23;20045;-72
2022/02/16 08:00:10;;;;;;;5.28;5.07;;;;;;;8.59;100.00;99390.03;6014221;23;20019;-71
2022/02/16 08:02:37;;;;;;;3.80;3.70;;;;;;;8.42;100.00;99375.44;6032246;23;20018;-71
2022/02/16 08:05:06;;;;;;;5.00;4.80;;;;;;;8.79;100.00;99415.72;6026401;23;20436;-70
2022/02/16 08:07:36;;;;;;;3.60;3.50;;;;;;;8.45;99.33;99330.78;6041946;23;20015;-71
2022/02/16 08:10:03;;;;;;;4.45;4.25;;;;;;;8.37;99.11;99296.44;6019432;23;20546;-71
2022/02/16 08:12:29;;;;;;;3.83;3.72;;;;;;;9.16;98.12;99408.06;5995017;23;20389;-70
2022/02/16 08:14:55;;;;;;;3.80;3.70;;;;;;;8.88;97.36;99346.28;6026523;23;20019;-69
2022/02/16 08:17:23;;;;;;;3.90;3.78;;;;;;;8.99;96.88;99361.25;5991382;23;20455;-71
2022/02/16 08:19:50;;;;;;;4.50;4.30;;;;;;;9.34;97.13;99407.75;6024529;23;20578;-69
2022/02/16 08:22:17;;;;;;;4.20;4.00;;;;;;;9.00;96.58;99352.47;6023624;23;20022;-69
2022/02/16 08:24:43;;;;;;;4.00;3.80;;;;;;;9.45;96.56;99410.50;6001296;23;20011;-69
2022/02/16 08:27:09;;;;;;;4.95;4.75;;;;;;;9.47;96.92;99410.38;6036558;23;20062;-70
2022/02/16 08:29:36;;;;;;;3.70;3.60;;;;;;;9.51;97.23;99396.97;6000495;23;20007;-70
2022/02/16 08:32:02;;;;;;;4.65;4.45;;;;;;;9.54;97.39;99391.53;6020854;23;20245;-70
2022/02/16 08:34:29;;;;;;;4.10;3.90;;;;;;;9.51;97.92;99390.91;5996406;23;20023;-70
2022/02/16 08:36:55;;;;;;;3.83;3.72;;;;;;;9.13;98.26;99342.00;6032061;23;20019;-70
2022/02/16 08:39:26;;;;;;;3.83;3.72;;;;;;;9.47;98.49;99395.50;5992975;23;20023;-72
2022/02/16 08:41:54;;;;;;;3.85;3.72;;;;;;;9.50;98.59;99394.44;5997318;23;20721;-70
2022/02/16 08:44:21;;;;;;;4.10;3.90;;;;;;;9.53;98.85;99397.69;6010056;23;20030;-71
2022/02/16 08:46:48;;;;;;;3.80;3.70;;;;;;;9.58;98.70;99398.25;6023362;23;20087;-71
2022/02/16 08:49:15;;;;;;;4.50;4.30;;;;;;;9.31;99.30;99342.53;6024795;23;20249;-71
2022/02/16 08:51:41;;;;;;;3.92;3.78;;;;;;;9.56;98.65;99373.94;6016205;23;20517;-72
2022/02/16 08:54:08;;;;;;;4.00;3.80;;;;;;;9.77;98.55;99382.06;5991995;23;20019;-70
2022/02/16 08:56:35;;;;;;;4.20;4.00;;;;;;;9.41;97.56;99316.53;6034499;23;20031;-70
2022/02/16 08:59:03;;;;;;;4.82;4.63;;;;;;;9.91;97.14;99396.00;5988956;23;20075;-70
2022/02/16 09:01:31;;;;;;;4.40;4.00;;;;;;;9.81;96.60;99376.63;6027545;23;20050;-70
2022/02/16 09:03:59;;;;;;;3.88;3.78;;;;;;;9.77;95.84;99362.91;5968794;23;20117;-71
2022/02/16 09:06:27;;;;;;;4.00;3.80;;;;;;;9.98;95.84;99400.69;6023134;23;20349;-70
2022/02/16 09:08:53;;;;;;;3.88;3.78;;;;;;;9.77;96.11;99368.97;6026763;23;20010;-70
2022/02/16 09:11:20;;;;;;;4.10;3.90;;;;;;;9.80;95.64;99357.44;5974320;23;20499;-70
2022/02/16 09:13:46;;;;;;;3.67;3.58;;;;;;;9.78;95.62;99364.56;5996980;23;20678;-71
2022/02/16 09:16:13;;;;;;;6.07;5.78;;;;;;;10.03;94.52;99396.91;5991243;23;20032;-70
2022/02/16 09:18:39;;;;;;;3.92;3.78;;;;;;;10.01;94.11;99397.00;6024888;23;20015;-70
2022/02/16 09:21:06;;;;;;;4.93;4.72;;;;;;;9.84;94.07;99352.81;5994423;23;20087;-71
2022/02/16 09:23:34;;;;;;;4.10;3.90;;;;;;;10.28;95.12;99414.34;6025834;23;20015;-75
2022/02/16 09:26:02;;;;;;;4.85;4.65;;;;;;;10.32;94.45;99410.59;6001223;23;20027;-69
2022/02/16 09:28:30;;;;;;;3.95;3.78;;;;;;;10.15;94.22;99399.50;6034258;23;20524;-69
2022/02/16 09:30:57;;;;;;;4.30;4.10;;;;;;;10.41;94.44;99411.72;5999356;23;20394;-68
2022/02/16 09:33:25;;;;;;;4.10;3.90;;;;;;;10.43;93.83;99415.91;6032387;23;20050;-68
2022/02/16 09:35:52;;;;;;;4.15;3.95;;;;;;;10.21;93.08;99360.69;6027234;23;20283;-68
2022/02/16 09:38:19;;;;;;;4.32;4.13;;;;;;;10.64;92.50;99421.38;6029173;23;20131;-67
2022/02/16 09:40:48;;;;;;;4.05;3.85;;;;;;;10.57;92.95;99383.44;5972659;23;20130;-67
2022/02/16 09:43:17;;;;;;;5.40;5.20;;;;;;;10.36;92.95;99357.81;6017437;23;20475;-67
2022/02/16 09:45:45;;;;;;;4.20;4.00;;;;;;;10.73;92.41;99417.25;6000051;23;20042;-67
2022/02/16 09:48:11;;;;;;;5.03;4.82;;;;;;;10.51;92.97;99392.56;5993363;23;20115;-67
2022/02/16 09:50:38;;;;;;;3.90;3.80;;;;;;;10.74;92.96;99403.16;6023652;23;20025;-69
2022/02/16 09:53:04;;;;;;;5.15;4.95;;;;;;;10.71;92.83;99388.50;5993952;23;20531;-68
2022/02/16 09:55:31;;;;;;;5.30;5.10;;;;;;;10.61;92.37;99376.19;6007505;23;20317;-70
2022/02/16 09:57:58;;;;;;;4.50;4.30;;;;;;;10.43;92.57;99349.50;6023120;23;20540;-73
2022/02/16 10:00:25;;;;;;;3.90;3.78;;;;;;;10.42;91.96;99350.44;6013131;23;20138;-70
2022/02/16 10:02:51;;;;;;;3.80;3.70;;;;;;;10.42;92.57;99345.19;6035612;23;20026;-71
2022/02/16 10:05:18;;;;;;;4.60;4.40;;;;;;;10.59;92.52;99357.91;6031167;23;20183;-70
2022/02/16 10:07:47;;;;;;;4.40;4.20;;;;;;;11.07;92.63;99404.25;6027612;23;20110;-71
2022/02/16 10:10:17;;;;;;;5.70;5.47;;;;;;;11.10;92.59;99440.75;5992860;23;20510;-68
2022/02/16 10:12:47;;;;;;;4.28;4.07;;;;;;;11.12;92.07;99426.56;6023797;23;20045;-70
2022/02/16 10:15:18;;;;;;;5.22;5.03;;;;;;;11.20;92.56;99457.50;5992555;23;20029;-69
2022/02/16 10:17:45;;;;;;;4.30;4.10;;;;;;;10.82;91.96;99358.00;5997739;23;20019;-71
2022/02/16 10:20:16;;;;;;;4.88;4.68;;;;;;;11.42;90.81;99417.31;6015351;23;20018;-71
2022/02/16 10:22:44;;;;;;;4.13;3.92;;;;;;;11.57;90.99;99423.22;5986876;23;20405;-69
2022/02/16 10:25:27;;;;;;;4.60;4.40;;;;;;;11.75;89.52;99421.78;6003166;23;20030;-74
2022/02/16 10:28:13;;;;;;;4.30;4.10;;;;;;;11.90;89.24;99430.28;6003347;23;20007;-74
2022/02/16 10:30:55;;;;;;;4.63;4.43;;;;;;;11.88;88.33;99416.41;6025954;23;20023;-70
2022/02/16 10:33:41;;;;;;;4.80;4.60;;;;;;;11.92;88.74;99431.00;5982840;23;20369;-74
2022/02/16 10:36:19;;;;;;;4.60;4.40;;;;;;;11.87;88.50;99420.00;6006480;23;20167;-80
2022/02/16 10:39:00;;;;;;;4.15;3.95;;;;;;;10.46;88.89;99211.09;5996878;23;20019;-74
2022/02/16 10:41:50;;;;;;;4.20;4.00;;;;;;;11.55;89.82;99368.16;6030988;23;20687;-72
2022/02/16 10:44:30;;;;;;;4.70;4.50;;;;;;;11.82;90.22;99414.25;5986601;23;20379;-72
2022/02/16 10:47:05;;;;;;;4.32;4.13;;;;;;;11.95;90.20;99436.03;6028878;23;20039;-71
2022/02/16 10:49:34;;;;;;;4.45;4.25;;;;;;;11.97;90.02;99442.00;5996476;23;20037;-68
2022/02/16 10:52:17;;;;;;;5.28;5.07;;;;;;;11.62;90.18;99362.41;6013731;23;20177;-69
2022/02/16 10:55:10;;;;;;;4.40;4.20;;;;;;;11.84;90.89;99419.41;5999848;23;20027;-70
2022/02/16 10:57:42;;;;;;;4.15;3.95;;;;;;;11.82;92.62;99427.41;6026313;23;20065;-67
2022/02/16 11:00:09;;;;;;;5.22;5.03;;;;;;;10.57;92.95;99234.72;6024631;23;20082;-68
2022/02/16 11:02:37;;;;;;;4.25;4.05;;;;;;;11.78;93.07;99434.66;6014459;23;20048;-71
2022/02/16 11:05:04;;;;;;;5.13;4.93;;;;;;;11.82;93.54;99432.66;5981220;23;20472;-72
2022/02/16 11:07:33;;;;;;;4.25;4.05;;;;;;;10.77;94.19;99288.31;6004352;23;20085;-73
2022/02/16 11:10:03;;;;;;;4.40;4.20;;;;;;;11.68;95.05;99444.22;6009741;23;20148;-72
2022/02/16 11:12:30;;;;;;;4.20;4.00;;;;;;;11.17;95.56;99353.53;6028241;23;20098;-72
2022/02/16 11:14:57;;;;;;;4.50;4.30;;;;;;;11.66;95.64;99408.50;6009858;23;20014;-73
2022/02/16 11:17:25;;;;;;;4.18;3.97;;;;;;;11.66;95.76;99382.25;5997705;23;20129;-72
2022/02/16 11:20:22;;;;;;;4.35;4.15;;;;;;;11.87;95.40;99427.88;6016838;23;20334;-73
2022/02/16 11:22:55;;;;;;;4.25;4.05;;;;;;;12.01;95.56;99425.97;6027683;23;20171;-71
2022/02/16 11:25:31;;;;;;;4.30;4.10;;;;;;;11.61;94.70;99348.44;6001597;23;20035;-75
2022/02/16 11:27:59;;;;;;;4.32;4.13;;;;;;;12.05;94.83;99409.03;6017905;23;20043;-70
2022/02/16 11:30:32;;;;;;;4.30;4.10;;;;;;;12.08;94.01;99382.47;6015602;23;20027;-70
2022/02/16 11:33:13;;;;;;;;;;;;;;;12.10;93.95;99397.16;6009739;23;20015;-70
2022/02/16 11:35:44;;;;;;;4.28;4.07;;;;;;;12.10;94.15;99402.44;6023685;23;19914;-72
2022/02/16 11:38:15;;;;;;;4.95;4.75;;;;;;;11.89;93.98;99368.16;5989544;23;20039;-71
2022/02/16 11:40:45;;;;;;;4.90;4.60;;;;;;;12.00;94.17;99387.50;5999854;23;20030;-72